Time;durP1;ratioP1;P1;durP2;ratioP2;P2;SDS_P1;SDS_P2;PMS_P1;PMS_P2;Temp;Humidity;BMP_temperature;BMP_pressure;BME280_temperature;BME280_humidity;BME280_pressure;Samples;Min_cycle;Max_cycle;Signal;HPM_P1;HPM_P2
2022/05/21 04:06:31;;;;;;;13.68;2.55;;;17.40;70.00;;;;;;5191841;24;20056;-71
2022/05/21 04:08:57;;;;;;;11.15;2.75;;;17.40;70.20;;;;;;4791499;29;20059;-73
2022/05/21 04:11:23;;;;;;;11.15;2.00;;;17.50;70.20;;;;;;4774243;29;20353;-71
2022/05/21 04:13:48;;;;;;;14.13;2.63;;;17.50;70.00;;;;;;4774223;30;20055;-71
2022/05/21 04:16:14;;;;;;;10.02;2.80;;;17.50;69.90;;;;;;4772030;30;20063;-71
2022/05/21 04:18:40;;;;;;;12.20;2.53;;;17.60;69.90;;;;;;4778848;30;20119;-70
2022/05/21 04:21:06;;;;;;;7.65;1.60;;;17.60;69.20;;;;;;4784960;30;20043;-70
2022/05/21 04:23:31;;;;;;;9.45;2.20;;;17.60;69.00;;;;;;4778390;30;20051;-72
2022/05/21 04:25:57;;;;;;;11.13;1.75;;;17.70;69.70;;;;;;4787246;30;20051;-73
2022/05/21 04:28:23;;;;;;;9.73;1.77;;;17.80;69.80;;;;;;4781826;29;20051;-73
2022/05/21 04:30:48;;;;;;;11.52;2.17;;;17.90;69.70;;;;;;4785670;30;20498;-72
2022/05/21 04:33:14;;;;;;;10.27;1.73;;;18.00;69.40;;;;;;4781206;29;20118;-71
2022/05/21 04:38:25;;;;;;;8.70;1.63;;;18.20;69.20;;;;;;4781013;30;20474;-75
2022/05/21 04:40:51;;;;;;;13.60;2.25;;;18.30;69.10;;;;;;4788549;30;20055;-70
2022/05/21 04:43:17;;;;;;;11.05;2.33;;;18.30;69.10;;;;;;4773851;30;20059;-71
2022/05/21 04:45:43;;;;;;;8.93;1.50;;;18.30;69.10;;;;;;4773243;30;20444;-72
2022/05/21 04:48:10;;;;;;;8.07;1.95;;;18.40;69.20;;;;;;4775176;30;20052;-71
2022/05/21 04:50:37;;;;;;;8.43;2.30;;;18.40;69.20;;;;;;4774006;30;20051;-70
2022/05/21 04:53:05;;;;;;;12.88;2.63;;;18.50;69.40;;;;;;4774134;30;20063;-72
2022/05/21 04:55:31;;;;;;;7.45;2.05;;;18.50;69.30;;;;;;4790723;30;20062;-72
2022/05/21 04:57:57;;;;;;;7.85;2.10;;;18.50;69.30;;;;;;4792527;30;20451;-71
2022/05/21 05:00:22;;;;;;;9.40;2.13;;;18.50;68.10;;;;;;4791944;29;20116;-68
2022/05/21 05:02:48;;;;;;;8.80;1.65;;;18.50;69.00;;;;;;4778749;30;20111;-71
2022/05/21 05:05:14;;;;;;;9.80;1.42;;;18.50;69.20;;;;;;4789957;30;20375;-78
2022/05/21 05:07:41;;;;;;;10.90;1.85;;;18.50;69.30;;;;;;4780634;30;20077;-72
2022/05/21 05:10:08;;;;;;;12.23;2.10;;;18.50;69.40;;;;;;4776843;30;20459;-72
2022/05/21 05:12:33;;;;;;;7.30;2.00;;;18.50;69.90;;;;;;4781709;30;20056;-71
2022/05/21 05:15:00;;;;;;;13.27;2.20;;;18.50;70.80;;;;;;4777816;30;20139;-71
2022/05/21 05:17:26;;;;;;;9.35;2.28;;;18.50;70.80;;;;;;4784658;29;20056;-71
2022/05/21 05:19:54;;;;;;;13.02;2.60;;;18.50;71.10;;;;;;4785063;29;20059;-73
2022/05/21 05:22:21;;;;;;;11.15;2.17;;;18.50;71.20;;;;;;4783399;30;20056;-71
2022/05/21 05:24:47;;;;;;;10.95;2.38;;;18.50;71.30;;;;;;4775624;30;20063;-71
2022/05/21 05:27:13;;;;;;;9.25;2.10;;;18.50;70.70;;;;;;4774099;30;20055;-71
2022/05/21 05:29:39;;;;;;;10.57;2.42;;;18.50;70.60;;;;;;4773547;30;20104;-71
2022/05/21 05:32:06;;;;;;;10.23;2.03;;;18.40;69.80;;;;;;4774026;30;20090;-70
2022/05/21 05:34:32;;;;;;;10.55;2.13;;;18.40;70.10;;;;;;4774297;30;20063;-70
2022/05/21 05:36:57;;;;;;;13.05;1.77;;;18.30;70.00;;;;;;4784760;30;20052;-70
2022/05/21 05:39:23;;;;;;;12.15;2.35;;;18.30;69.70;;;;;;4787304;30;20366;-69
2022/05/21 05:41:51;;;;;;;14.05;1.95;;;18.20;69.90;;;;;;4789952;30;20058;-71
2022/05/21 05:44:17;;;;;;;13.77;2.60;;;18.20;69.60;;;;;;4774328;30;20420;-70
2022/05/21 05:46:43;;;;;;;10.73;2.40;;;18.20;70.80;;;;;;4773944;30;20132;-73
2022/05/21 05:49:09;;;;;;;9.15;2.25;;;18.20;71.30;;;;;;4774374;30;20445;-71
2022/05/21 05:51:35;;;;;;;10.35;2.38;;;18.30;70.80;;;;;;4774074;30;20055;-70
2022/05/21 05:54:02;;;;;;;14.60;2.53;;;18.30;70.80;;;;;;4772675;30;20055;-72
2022/05/21 05:56:27;;;;;;;15.18;2.88;;;18.30;69.90;;;;;;4772086;30;20047;-69
2022/05/21 06:01:39;;;;;;;12.18;3.00;;;18.30;70.00;;;;;;4773397;30;20056;-71
2022/05/21 06:04:04;;;;;;;14.73;2.28;;;18.30;70.60;;;;;;4773663;30;20139;-70
2022/05/21 06:06:31;;;;;;;12.50;2.42;;;18.30;69.80;;;;;;4773940;30;20092;-69
2022/05/21 06:08:57;;;;;;;10.68;1.95;;;18.30;69.50;;;;;;4776732;30;20065;-70
2022/05/21 06:11:23;;;;;;;10.38;2.67;;;18.20;69.20;;;;;;4782492;30;20063;-70
2022/05/21 06:13:49;;;;;;;12.95;2.80;;;18.20;69.20;;;;;;4791769;29;20083;-71
2022/05/21 06:16:15;;;;;;;13.98;2.60;;;18.30;69.10;;;;;;4776568;30;20123;-71
2022/05/21 06:18:42;;;;;;;8.85;1.90;;;18.30;69.30;;;;;;4786660;30;20051;-76
2022/05/21 06:21:08;;;;;;;10.35;2.67;;;18.30;69.00;;;;;;4790246;30;20116;-70
2022/05/21 06:23:34;;;;;;;12.80;2.72;;;18.30;68.70;;;;;;4791585;29;20115;-73
2022/05/21 06:26:00;;;;;;;9.95;2.25;;;18.30;68.70;;;;;;4791487;30;20082;-72
2022/05/21 06:28:29;;;;;;;8.73;2.20;;;18.30;68.20;;;;;;4776718;29;20489;-71
2022/05/21 06:30:56;;;;;;;8.77;2.22;;;18.40;68.70;;;;;;4773572;30;20600;-72
2022/05/21 06:33:25;;;;;;;12.40;2.50;;;18.40;68.10;;;;;;4773446;30;20200;-71
2022/05/21 06:36:08;;;;;;;12.05;2.58;;;18.40;68.10;;;;;;4773760;30;20070;-71
2022/05/21 06:38:34;;;;;;;13.70;2.30;;;18.40;67.60;;;;;;4773747;30;20052;-72
2022/05/21 06:41:01;;;;;;;7.78;2.67;;;18.40;67.60;;;;;;4773379;30;20536;-71
2022/05/21 06:43:27;;;;;;;11.10;2.20;;;18.40;67.70;;;;;;4773289;30;20070;-71
2022/05/21 06:45:52;;;;;;;6.63;1.88;;;18.40;67.90;;;;;;4773094;30;20051;-74
2022/05/21 06:48:18;;;;;;;12.45;2.35;;;18.40;68.30;;;;;;4772228;30;20125;-71
2022/05/21 06:50:45;;;;;;;9.30;1.85;;;18.40;68.20;;;;;;4772932;30;20065;-71
2022/05/21 06:53:11;;;;;;;11.68;2.50;;;18.40;68.70;;;;;;4775465;30;20425;-72
2022/05/21 06:55:38;;;;;;;11.55;2.80;;;18.40;68.30;;;;;;4783822;30;20130;-71
2022/05/21 06:58:04;;;;;;;7.57;2.10;;;18.40;68.40;;;;;;4772053;30;20055;-72
2022/05/21 07:00:29;;;;;;;12.45;2.28;;;18.40;69.10;;;;;;4780743;30;20132;-71
2022/05/21 07:02:55;;;;;;;10.70;1.75;;;18.40;69.10;;;;;;4790307;30;20139;-74
2022/05/21 07:08:16;;;;;;;11.93;2.30;;;18.50;69.20;;;;;;4771727;30;20067;-73
2022/05/21 07:10:41;;;;;;;10.25;2.55;;;18.50;69.30;;;;;;4777634;30;20110;-74
2022/05/21 07:13:07;;;;;;;12.20;2.90;;;18.50;69.00;;;;;;4789556;30;20075;-71
2022/05/21 07:15:33;;;;;;;13.18;2.90;;;18.50;69.10;;;;;;4785029;30;20080;-73
2022/05/21 07:18:00;;;;;;;11.23;2.08;;;18.50;69.40;;;;;;4772435;30;20051;-73
2022/05/21 07:20:27;;;;;;;19.92;2.72;;;18.50;69.60;;;;;;4786162;30;20066;-71
2022/05/21 07:22:53;;;;;;;19.40;4.35;;;18.50;70.70;;;;;;4789331;30;20043;-71
2022/05/21 07:25:29;;;;;;;14.10;3.33;;;18.50;71.50;;;;;;4789603;30;20422;-71
2022/05/21 07:27:55;;;;;;;11.95;3.45;;;18.40;69.20;;;;;;4788238;30;20043;-70
2022/05/21 07:30:21;;;;;;;13.68;2.95;;;18.50;72.10;;;;;;4756981;30;20483;-73
2022/05/21 07:32:50;;;;;;;11.23;2.65;;;18.50;72.00;;;;;;4772204;30;20361;-74
2022/05/21 07:35:18;;;;;;;9.15;2.28;;;18.50;72.50;;;;;;4772027;30;20429;-71
2022/05/21 07:37:44;;;;;;;11.32;2.47;;;18.50;71.90;;;;;;4756300;30;20055;-72
2022/05/21 07:40:11;;;;;;;11.05;2.90;;;18.60;73.20;;;;;;4772755;30;20365;-71
2022/05/21 07:42:37;;;;;;;13.95;3.35;;;18.60;74.80;;;;;;4773918;30;20062;-72
2022/05/21 07:45:05;;;;;;;12.40;2.85;;;18.70;74.80;;;;;;4773181;30;20047;-72
2022/05/21 07:47:30;;;;;;;21.92;3.42;;;18.80;75.90;;;;;;4773660;30;20054;-71
2022/05/21 07:49:56;;;;;;;21.70;3.47;;;18.80;75.80;;;;;;4766857;30;20051;-71
2022/05/21 07:52:29;;;;;;;14.15;2.78;;;18.80;75.50;;;;;;4772039;30;20452;-72
2022/05/21 07:54:56;;;;;;;17.65;2.88;;;18.90;75.20;;;;;;4756342;30;20051;-74
2022/05/21 07:57:22;;;;;;;19.95;3.35;;;18.90;75.30;;;;;;4780972;30;20235;-75
2022/05/21 07:59:47;;;;;;;17.08;3.72;;;18.90;76.30;;;;;;4789403;30;20375;-74
2022/05/21 08:02:17;;;;;;;25.17;3.78;;;19.00;76.50;;;;;;4771952;30;20047;-76
2022/05/21 08:04:44;;;;;;;19.80;3.13;;;19.00;76.30;;;;;;4789253;30;20051;-76
2022/05/21 08:07:12;;;;;;;15.02;2.88;;;19.00;75.50;;;;;;4773321;30;20060;-74
2022/05/21 08:09:38;;;;;;;15.68;3.30;;;19.10;75.50;;;;;;4771184;30;20062;-79
2022/05/21 08:12:07;;;;;;;23.33;3.67;;;19.10;75.30;;;;;;4762557;30;20057;-75
2022/05/21 08:14:33;;;;;;;21.50;3.78;;;19.10;75.20;;;;;;4771662;30;20133;-73
2022/05/21 08:16:59;;;;;;;10.45;2.67;;;19.10;73.80;;;;;;4771887;30;20055;-73
2022/05/21 08:19:25;;;;;;;20.60;3.28;;;19.10;73.80;;;;;;4787112;29;20058;-76
2022/05/21 08:21:51;;;;;;;20.48;2.85;;;19.10;74.30;;;;;;4791159;30;20051;-76
2022/05/21 08:27:02;;;;;;;10.95;1.95;;;19.20;74.00;;;;;;4779400;30;20048;-74
2022/05/21 08:29:35;;;;;;;12.00;2.28;;;19.20;73.80;;;;;;4775104;30;20067;-77
2022/05/21 08:32:03;;;;;;;14.95;2.78;;;19.20;73.70;;;;;;4776049;30;20083;-76
2022/05/21 08:34:30;;;;;;;19.50;3.13;;;19.20;73.60;;;;;;4775048;30;20060;-76
2022/05/21 08:36:57;;;;;;;12.25;2.45;;;19.20;73.40;;;;;;4782191;30;20098;-76
2022/05/21 08:39:25;;;;;;;13.05;2.50;;;19.20;73.30;;;;;;4760823;30;20421;-77
2022/05/21 08:42:06;;;;;;;10.25;1.70;;;19.20;73.10;;;;;;4776040;30;20074;-77
2022/05/21 08:44:39;;;;;;;13.60;2.55;;;19.20;72.90;;;;;;4774557;30;20103;-76
2022/05/21 08:47:17;;;;;;;9.68;2.35;;;19.30;72.80;;;;;;4759393;30;20145;-76
2022/05/21 08:50:02;;;;;;;9.88;2.08;;;19.30;72.80;;;;;;4784846;30;20505;-78
2022/05/21 08:52:30;;;;;;;14.45;2.88;;;19.20;72.70;;;;;;4790786;30;20047;-76
2022/05/21 08:54:58;;;;;;;11.98;2.72;;;19.20;73.10;;;;;;4774456;30;20459;-76
2022/05/21 08:57:51;;;;;;;12.13;2.15;;;19.30;72.30;;;;;;4773263;30;20095;-75
2022/05/21 09:00:33;;;;;;;6.78;1.85;;;19.30;72.10;;;;;;4775750;30;20059;-74
2022/05/21 09:03:00;;;;;;;9.90;2.47;;;19.30;72.10;;;;;;4771359;30;20072;-75
2022/05/21 09:05:26;;;;;;;11.60;1.63;;;19.30;72.00;;;;;;4774473;30;20117;-75
2022/05/21 09:08:20;;;;;;;12.18;2.63;;;19.30;71.80;;;;;;4774303;30;20059;-76
2022/05/21 09:11:03;;;;;;;;;;;19.30;71.80;;;;;;4791682;30;20051;-76
2022/05/21 09:14:00;;;;;;;7.40;1.80;;;19.30;71.70;;;;;;4774609;30;19925;-77
2022/05/21 09:19:10;;;;;;;9.60;2.15;;;19.30;71.70;;;;;;4764549;30;20059;-75
2022/05/21 09:21:43;;;;;;;7.28;1.92;;;19.30;71.60;;;;;;4791390;30;20128;-76
2022/05/21 09:24:09;;;;;;;10.88;1.70;;;19.30;71.50;;;;;;4790405;30;20051;-77
2022/05/21 09:26:50;;;;;;;7.20;1.45;;;19.30;71.40;;;;;;4767811;30;20147;-74
2022/05/21 09:29:33;;;;;;;8.85;2.33;;;19.40;71.10;;;;;;4779971;30;20058;-76
2022/05/21 09:32:14;;;;;;;6.15;1.38;;;19.40;70.80;;;;;;4791158;29;20398;-74
2022/05/21 09:34:40;;;;;;;7.97;1.42;;;19.30;71.00;;;;;;4776730;30;20048;-76
2022/05/21 09:37:16;;;;;;;7.18;1.73;;;19.40;71.00;;;;;;4758700;30;20508;-74
2022/05/21 09:39:42;;;;;;;5.53;1.40;;;19.40;70.90;;;;;;4773967;30;20147;-74
2022/05/21 09:45:27;;;;;;;5.60;1.92;;;19.40;70.90;;;;;;4785719;30;20067;-73
2022/05/21 09:48:13;;;;;;;5.60;1.85;;;19.40;71.00;;;;;;4791086;30;20055;-76
2022/05/21 09:50:59;;;;;;;6.00;1.48;;;19.30;70.90;;;;;;4790907;30;20051;-76
2022/05/21 09:53:38;;;;;;;6.80;1.33;;;19.40;70.90;;;;;;4775419;30;20072;-77
2022/05/21 09:56:20;;;;;;;6.90;1.35;;;19.40;70.80;;;;;;4773955;30;20053;-77
2022/05/21 09:58:49;;;;;;;4.82;1.10;;;19.40;70.70;;;;;;4757907;30;20051;-75
2022/05/21 10:01:32;;;;;;;7.28;1.33;;;19.40;70.80;;;;;;4758937;30;20131;-75
2022/05/21 10:04:00;;;;;;;3.60;1.13;;;19.40;70.70;;;;;;4780399;30;20047;-76
2022/05/21 10:06:34;;;;;;;6.13;1.60;;;19.40;70.60;;;;;;4773496;30;20055;-74
2022/05/21 10:12:22;;;;;;;15.35;2.03;;;19.40;70.40;;;;;;4774594;30;20059;-77
2022/05/21 10:15:01;;;;;;;6.85;1.75;;;19.40;70.40;;;;;;4749069;30;20059;-75
2022/05/21 10:17:35;;;;;;;3.33;1.27;;;19.40;70.60;;;;;;4770919;30;20051;-78
2022/05/21 10:20:10;;;;;;;;;;;19.40;70.60;;;;;;4790610;30;20052;-74
2022/05/21 10:23:17;;;;;;;13.68;1.95;;;19.40;70.50;;;;;;4789483;30;20030;-74
2022/05/21 10:26:24;;;;;;;5.03;1.65;;;19.40;68.00;;;;;;4790260;30;20051;-74
2022/05/21 10:29:16;;;;;;;7.95;1.98;;;19.40;69.20;;;;;;4751905;30;20116;-77
2022/05/21 10:32:05;;;;;;;10.70;2.17;;;19.40;67.10;;;;;;4745244;30;20117;-79
2022/05/21 10:35:04;;;;;;;9.88;2.28;;;19.20;66.60;;;;;;4785879;30;20055;-77
2022/05/21 10:37:36;;;;;;;9.07;1.92;;;19.20;67.10;;;;;;4773081;30;20187;-76
2022/05/21 10:40:18;;;;;;;9.63;2.03;;;19.10;67.10;;;;;;4774370;30;20055;-78
2022/05/21 10:42:44;;;;;;;10.27;2.08;;;19.10;67.50;;;;;;4783103;30;20040;-76
2022/05/21 10:45:33;;;;;;;8.30;2.05;;;19.10;67.60;;;;;;4772945;30;20388;-75
2022/05/21 10:48:04;;;;;;;11.20;2.58;;;19.20;66.80;;;;;;4779965;30;20050;-78
2022/05/21 10:50:55;;;;;;;10.93;2.15;;;19.20;68.10;;;;;;4777709;30;20039;-77
2022/05/21 10:53:45;;;;;;;10.63;2.25;;;19.30;65.80;;;;;;4790233;30;20486;-75
2022/05/21 10:56:26;;;;;;;7.60;1.92;;;19.20;66.20;;;;;;4789818;30;20426;-75
2022/05/21 10:59:16;;;;;;;10.15;1.67;;;19.20;66.60;;;;;;4760388;30;20366;-77
2022/05/21 11:02:15;;;;;;;8.38;1.67;;;19.20;66.90;;;;;;4785985;30;20073;-77
2022/05/21 11:04:56;;;;;;;7.00;2.17;;;19.20;67.00;;;;;;4789962;30;20040;-77
2022/05/21 11:07:36;;;;;;;8.57;1.85;;;19.20;67.00;;;;;;4771024;30;20179;-77
2022/05/21 11:10:05;;;;;;;11.13;2.03;;;19.20;67.50;;;;;;4772573;30;20055;-76
2022/05/21 11:12:37;;;;;;;7.13;2.03;;;19.20;67.10;;;;;;4756821;30;20125;-80
2022/05/21 11:15:13;;;;;;;11.50;1.83;;;19.20;67.10;;;;;;4772279;30;20062;-76
2022/05/21 11:17:46;;;;;;;11.50;2.67;;;19.20;67.10;;;;;;4782670;30;20058;-76
2022/05/21 11:21:00;;;;;;;8.82;2.17;;;19.20;66.50;;;;;;4789517;30;20226;-80
2022/05/21 11:23:57;;;;;;;9.85;2.00;;;19.20;66.60;;;;;;4685323;30;20148;-77
2022/05/21 11:26:41;;;;;;;14.65;1.90;;;19.20;66.50;;;;;;4767047;30;20043;-75
2022/05/21 11:29:17;;;;;;;9.00;1.90;;;19.20;66.90;;;;;;4757204;30;20080;-75
2022/05/21 11:38:23;;;;;;;11.65;1.77;;;19.20;66.70;;;;;;4772493;30;20059;-76
2022/05/21 11:41:29;;;;;;;12.63;2.30;;;19.30;67.60;;;;;;4788988;30;20051;-75
2022/05/21 11:47:13;;;;;;;9.60;1.98;;;19.30;66.70;;;;;;4771556;30;20060;-73
2022/05/21 11:49:44;;;;;;;9.05;2.03;;;19.30;67.00;;;;;;4781722;30;20573;-73
2022/05/21 11:52:34;;;;;;;15.65;2.38;;;19.30;67.40;;;;;;4786347;30;20075;-73
2022/05/21 11:55:10;;;;;;;11.77;2.75;;;19.40;67.40;;;;;;4786752;30;20047;-74
2022/05/21 11:57:41;;;;;;;12.43;2.10;;;19.30;67.60;;;;;;4788486;30;20039;-73
2022/05/21 12:00:29;;;;;;;10.63;2.05;;;19.30;67.70;;;;;;4787938;30;20470;-73
2022/05/21 12:02:56;;;;;;;9.52;1.83;;;19.40;66.90;;;;;;4787380;30;20043;-74
2022/05/21 12:05:41;;;;;;;11.32;2.08;;;19.40;67.20;;;;;;4787652;30;20128;-74
2022/05/21 12:08:36;;;;;;;12.63;2.05;;;19.40;67.00;;;;;;4788711;30;20116;-75
2022/05/21 12:11:04;;;;;;;;;;;19.40;66.20;;;;;;4776412;30;20113;-74
2022/05/21 12:13:33;;;;;;;12.60;2.50;;;19.40;66.80;;;;;;4755888;30;19936;-74
2022/05/21 12:16:22;;;;;;;8.35;1.52;;;19.30;67.70;;;;;;4772457;30;20131;-74
2022/05/21 12:18:52;;;;;;;13.52;2.10;;;19.40;67.10;;;;;;4782359;30;20104;-74
2022/05/21 12:21:30;;;;;;;9.07;1.83;;;19.40;67.60;;;;;;4789269;30;20060;-76
2022/05/21 12:23:56;;;;;;;17.83;2.88;;;19.40;67.20;;;;;;4771690;30;20117;-77
2022/05/21 12:26:27;;;;;;;10.50;2.40;;;19.40;68.00;;;;;;4778283;30;20136;-74
2022/05/21 12:28:56;;;;;;;11.95;1.77;;;19.40;67.60;;;;;;4788996;30;20395;-74
2022/05/21 12:31:28;;;;;;;14.95;2.40;;;19.40;67.30;;;;;;4789003;30;20142;-76
2022/05/21 12:34:12;;;;;;;14.73;2.83;;;19.40;66.70;;;;;;4771855;30;20126;-75
2022/05/21 12:37:02;;;;;;;11.63;2.33;;;19.40;66.60;;;;;;4786311;30;20382;-74
2022/05/21 12:39:42;;;;;;;17.77;2.25;;;19.30;66.60;;;;;;4788816;30;20066;-74
2022/05/21 12:42:30;;;;;;;16.73;2.97;;;19.30;66.90;;;;;;4784440;30;20116;-77
2022/05/21 12:44:55;;;;;;;28.02;3.70;;;19.40;67.10;;;;;;4762272;30;20059;-75
2022/05/21 12:47:37;;;;;;;19.02;2.72;;;19.40;67.20;;;;;;4771412;30;20056;-75
2022/05/21 12:50:21;;;;;;;17.85;3.17;;;19.40;67.20;;;;;;4770762;30;20063;-75
2022/05/21 12:52:52;;;;;;;15.27;2.92;;;19.40;67.50;;;;;;4770923;30;20087;-73
2022/05/21 12:55:21;;;;;;;19.25;2.85;;;19.40;67.40;;;;;;4781218;30;20108;-76
2022/05/21 12:57:49;;;;;;;18.15;2.45;;;19.50;67.70;;;;;;4777533;30;20051;-72
2022/05/21 13:00:18;;;;;;;12.43;2.25;;;19.50;67.60;;;;;;4788303;30;20472;-74
2022/05/21 13:02:54;;;;;;;15.90;2.30;;;19.50;67.70;;;;;;4778443;30;20480;-76
2022/05/21 13:05:26;;;;;;;15.63;3.42;;;19.50;67.80;;;;;;4771521;30;20058;-75
2022/05/21 13:07:56;;;;;;;13.70;2.35;;;19.50;67.80;;;;;;4774084;30;20380;-74
2022/05/21 13:10:28;;;;;;;13.45;2.45;;;19.50;67.80;;;;;;4759337;30;20068;-75
2022/05/21 13:13:04;;;;;;;14.40;3.25;;;19.50;67.80;;;;;;4774585;30;20056;-76
2022/05/21 13:15:45;;;;;;;12.02;2.28;;;19.50;67.80;;;;;;4774170;30;20059;-76
2022/05/21 13:18:35;;;;;;;17.35;3.00;;;19.50;67.70;;;;;;4777474;30;20085;-73
2022/05/21 13:21:43;;;;;;;8.20;2.33;;;19.60;67.80;;;;;;4792639;30;20051;-75
2022/05/21 13:24:47;;;;;;;15.55;2.47;;;19.50;67.30;;;;;;4754283;30;20047;-72
2022/05/21 13:27:20;;;;;;;11.02;2.47;;;19.50;67.90;;;;;;4710505;30;20053;-73
2022/05/21 13:29:47;;;;;;;10.50;2.00;;;19.60;68.30;;;;;;4688599;30;20466;-75
2022/05/21 13:32:26;;;;;;;13.98;2.33;;;19.50;68.30;;;;;;4726639;30;20064;-75
2022/05/21 13:35:00;;;;;;;14.35;2.38;;;19.60;68.40;;;;;;4788810;29;20090;-75
2022/05/21 13:37:38;;;;;;;14.43;2.92;;;19.60;68.40;;;;;;4785799;30;20090;-77
2022/05/21 13:40:13;;;;;;;10.63;2.25;;;19.60;66.70;;;;;;4761992;30;20052;-77
2022/05/21 13:42:43;;;;;;;12.77;2.58;;;19.60;65.20;;;;;;4789345;29;20419;-77
2022/05/21 13:45:17;;;;;;;6.30;2.28;;;19.50;64.00;;;;;;4783734;30;20051;-77
2022/05/21 13:47:51;;;;;;;10.35;2.33;;;19.50;63.60;;;;;;4774279;30;20047;-76
2022/05/21 13:50:20;;;;;;;18.27;3.05;;;19.40;62.90;;;;;;4785179;30;20476;-72
2022/05/21 13:52:46;;;;;;;10.30;2.40;;;19.30;63.40;;;;;;4785711;30;20086;-71
2022/05/21 13:55:13;;;;;;;15.88;2.42;;;19.30;63.90;;;;;;4789788;29;20055;-75
2022/05/21 13:57:40;;;;;;;12.60;2.10;;;19.30;64.40;;;;;;4779990;29;20113;-75
2022/05/21 14:00:16;;;;;;;7.38;1.92;;;19.30;64.90;;;;;;4781071;30;20383;-74
2022/05/21 14:02:50;;;;;;;11.68;3.00;;;19.30;65.00;;;;;;4785539;30;20130;-73
2022/05/21 14:05:42;;;;;;;8.80;2.40;;;19.30;65.00;;;;;;4779885;29;20054;-74
2022/05/21 14:08:09;;;;;;;10.98;2.58;;;19.40;65.40;;;;;;4791517;29;20071;-75
2022/05/21 14:10:48;;;;;;;13.95;2.53;;;19.40;65.40;;;;;;4791198;30;20116;-74
2022/05/21 14:13:35;;;;;;;10.52;2.50;;;19.40;66.00;;;;;;4787721;29;20115;-74
2022/05/21 14:16:27;;;;;;;8.77;2.20;;;19.40;65.50;;;;;;4809835;29;20348;-75
2022/05/21 14:19:10;;;;;;;13.07;2.67;;;19.40;66.10;;;;;;4782801;29;20479;-73
2022/05/21 14:21:37;;;;;;;10.13;2.53;;;19.50;66.70;;;;;;4791336;30;20055;-73
2022/05/21 14:24:27;;;;;;;6.07;2.33;;;19.50;66.50;;;;;;4790594;29;20051;-74
2022/05/21 14:26:59;;;;;;;7.95;1.70;;;19.50;66.90;;;;;;4808946;29;20462;-75
2022/05/21 14:29:40;;;;;;;7.38;2.10;;;19.50;67.20;;;;;;4793519;29;20054;-75
2022/05/21 14:32:15;;;;;;;8.55;2.17;;;19.50;67.40;;;;;;4793374;29;20104;-75
2022/05/21 14:34:41;;;;;;;10.82;2.40;;;19.60;67.70;;;;;;4786653;30;20057;-75
2022/05/21 14:37:28;;;;;;;6.50;1.70;;;19.50;67.40;;;;;;4791148;30;20073;-74
2022/05/21 14:39:54;;;;;;;8.23;1.42;;;19.60;68.30;;;;;;4777466;30;20040;-74
2022/05/21 14:42:21;;;;;;;7.10;1.90;;;19.60;68.20;;;;;;4783800;29;20109;-76
2022/05/21 14:44:48;;;;;;;11.30;2.13;;;19.60;68.50;;;;;;4790662;29;20094;-74
2022/05/21 14:53:01;;;;;;;16.23;2.85;;;19.60;68.90;;;;;;4720503;30;20097;-72
2022/05/21 14:55:27;;;;;;;17.70;2.65;;;19.70;68.70;;;;;;4753696;29;20150;-75
2022/05/21 14:57:53;;;;;;;15.80;3.08;;;19.60;68.20;;;;;;4789309;29;20134;-78
2022/05/21 15:00:20;;;;;;;9.85;1.92;;;19.60;67.10;;;;;;4805092;29;20054;-74
2022/05/21 15:02:47;;;;;;;15.60;2.50;;;19.60;66.60;;;;;;4790415;29;20098;-75
2022/05/21 15:05:13;;;;;;;11.60;2.35;;;19.60;66.60;;;;;;4787495;29;20054;-75
2022/05/21 15:07:46;;;;;;;12.32;1.98;;;19.60;66.70;;;;;;4791317;29;20474;-73
2022/05/21 15:10:19;;;;;;;8.90;2.03;;;19.60;67.10;;;;;;4800672;29;20055;-74
2022/05/21 15:12:45;;;;;;;16.33;2.47;;;19.60;67.20;;;;;;4774422;29;20471;-77
2022/05/21 15:15:14;;;;;;;11.50;2.30;;;19.60;67.50;;;;;;4802719;29;20055;-73
2022/05/21 15:17:44;;;;;;;7.75;2.28;;;19.60;67.90;;;;;;4789523;29;20518;-75
2022/05/21 15:20:11;;;;;;;14.00;2.25;;;19.70;68.40;;;;;;4794886;29;20497;-74
2022/05/21 15:22:39;;;;;;;15.40;2.42;;;19.60;68.70;;;;;;4799437;29;20047;-77
2022/05/21 15:25:07;;;;;;;15.57;3.00;;;19.70;68.90;;;;;;4779515;30;20364;-76
2022/05/21 15:27:38;;;;;;;10.10;2.58;;;19.70;70.00;;;;;;4789489;29;20062;-80
2022/05/21 15:30:09;;;;;;;12.45;2.78;;;19.70;69.60;;;;;;4789513;29;20047;-78
2022/05/21 15:32:37;;;;;;;9.80;2.25;;;19.80;69.20;;;;;;4773853;29;20128;-79
2022/05/21 15:35:04;;;;;;;12.32;2.53;;;19.70;68.40;;;;;;4802657;29;20055;-75
2022/05/21 15:37:30;;;;;;;11.93;2.70;;;19.70;68.00;;;;;;4776532;30;20055;-76
2022/05/21 15:39:55;;;;;;;9.27;2.17;;;19.70;67.70;;;;;;4806939;29;20058;-76
2022/05/21 15:42:22;;;;;;;10.38;2.50;;;19.70;67.70;;;;;;4804211;29;20089;-74
2022/05/21 15:44:54;;;;;;;11.00;2.35;;;19.60;67.60;;;;;;4790631;29;20480;-75
2022/05/21 15:47:21;;;;;;;8.48;1.80;;;19.70;67.60;;;;;;4789591;29;20051;-80
2022/05/21 15:49:48;;;;;;;10.75;2.30;;;19.60;67.30;;;;;;4798731;29;20051;-77
2022/05/21 15:52:23;;;;;;;10.13;1.95;;;19.60;67.00;;;;;;4789139;29;20051;-74
2022/05/21 15:54:48;;;;;;;13.95;2.28;;;19.60;67.00;;;;;;4789692;29;20055;-73
2022/05/21 15:57:14;;;;;;;9.90;1.95;;;19.60;67.10;;;;;;4773912;30;20140;-79
2022/05/21 15:59:41;;;;;;;9.65;2.55;;;19.60;67.30;;;;;;4802901;29;20061;-75
2022/05/21 16:02:20;;;;;;;12.80;2.10;;;19.60;67.40;;;;;;4825654;29;20064;-74
2022/05/21 16:04:46;;;;;;;13.98;2.70;;;19.70;68.00;;;;;;4802651;29;20348;-74
2022/05/21 16:07:12;;;;;;;9.13;2.58;;;19.70;69.00;;;;;;4807286;29;20116;-75
2022/05/21 16:09:37;;;;;;;10.35;2.30;;;19.70;69.10;;;;;;4807243;29;20133;-74
2022/05/21 16:12:03;;;;;;;15.93;2.60;;;19.70;68.90;;;;;;4807821;29;20066;-74
2022/05/21 16:14:33;;;;;;;8.05;1.98;;;19.70;68.20;;;;;;4799929;29;20062;-74
2022/05/21 16:17:00;;;;;;;11.05;2.42;;;19.70;67.60;;;;;;4813836;29;20474;-75
2022/05/21 16:19:26;;;;;;;10.35;1.92;;;19.70;67.40;;;;;;4825974;29;20474;-74
2022/05/21 16:21:55;;;;;;;13.43;2.72;;;19.70;67.10;;;;;;4825985;29;20138;-74
2022/05/21 16:24:21;;;;;;;12.25;2.88;;;19.70;67.00;;;;;;4825904;29;20066;-76
2022/05/21 16:29:31;;;;;;;13.18;2.33;;;19.70;67.80;;;;;;4825923;29;20344;-75
2022/05/21 16:31:56;;;;;;;13.77;2.42;;;19.80;68.40;;;;;;4809793;29;20230;-74
2022/05/21 16:34:23;;;;;;;13.50;2.08;;;19.80;68.20;;;;;;4825987;29;20415;-75
2022/05/21 16:36:49;;;;;;;12.98;2.90;;;19.80;68.20;;;;;;4825606;29;20424;-73
2022/05/21 16:39:15;;;;;;;10.68;1.85;;;19.80;68.20;;;;;;4795060;29;20133;-76
2022/05/21 16:41:40;;;;;;;17.73;2.33;;;19.80;68.50;;;;;;4828741;29;20474;-76
2022/05/21 16:44:06;;;;;;;8.43;1.83;;;19.80;68.70;;;;;;4829442;29;20054;-76
2022/05/21 16:46:33;;;;;;;10.25;1.75;;;19.90;68.90;;;;;;4829376;29;20062;-75
2022/05/21 16:48:59;;;;;;;9.85;1.70;;;19.80;69.00;;;;;;4829410;29;20095;-76
2022/05/21 16:51:27;;;;;;;15.70;2.13;;;19.80;68.80;;;;;;4829120;29;20050;-74
2022/05/21 16:53:54;;;;;;;18.27;2.83;;;19.90;68.90;;;;;;4784962;29;20047;-73
2022/05/21 16:56:21;;;;;;;27.17;4.15;;;19.80;68.80;;;;;;4794706;29;20051;-75
2022/05/21 16:58:46;;;;;;;19.27;2.97;;;19.90;68.70;;;;;;4797846;29;20054;-76
2022/05/21 17:01:12;;;;;;;9.02;2.50;;;19.90;68.70;;;;;;4794266;29;20455;-75
2022/05/21 17:03:38;;;;;;;19.52;3.15;;;19.80;68.40;;;;;;4805795;29;20459;-76
2022/05/21 17:06:04;;;;;;;21.30;2.58;;;19.90;68.40;;;;;;4805925;29;20131;-76
2022/05/21 17:08:29;;;;;;;15.00;2.13;;;19.80;68.30;;;;;;4808291;29;20540;-77
2022/05/21 17:10:55;;;;;;;16.73;2.85;;;19.80;68.10;;;;;;4781471;30;20047;-75
2022/05/21 17:13:21;;;;;;;21.17;3.67;;;19.80;68.50;;;;;;4805197;29;20051;-75
2022/05/21 17:15:47;;;;;;;18.98;2.40;;;19.80;68.70;;;;;;4801106;29;20130;-75
2022/05/21 17:18:14;;;;;;;21.35;3.72;;;19.80;68.80;;;;;;4809641;29;20140;-75
2022/05/21 17:20:39;;;;;;;23.17;2.63;;;19.80;68.70;;;;;;4792902;29;20365;-76
2022/05/21 17:23:05;;;;;;;13.88;2.42;;;19.80;68.50;;;;;;4809784;29;20057;-74
2022/05/21 17:25:31;;;;;;;16.58;2.75;;;19.80;67.60;;;;;;4777898;29;20059;-75
2022/05/21 17:30:41;;;;;;;17.15;2.80;;;19.70;66.60;;;;;;4802652;29;20051;-75
2022/05/21 17:33:17;;;;;;;8.73;2.38;;;19.60;66.00;;;;;;4809663;29;20134;-74
2022/05/21 17:35:54;;;;;;;15.82;2.10;;;19.60;65.70;;;;;;4783784;30;20059;-74
2022/05/21 17:38:20;;;;;;;16.30;2.85;;;19.60;65.40;;;;;;4793052;29;20455;-74
2022/05/21 17:40:46;;;;;;;7.47;1.80;;;19.50;65.00;;;;;;4776388;30;20039;-75
2022/05/21 17:43:14;;;;;;;10.20;2.35;;;19.40;64.70;;;;;;4798104;29;20108;-75
2022/05/21 17:45:40;;;;;;;12.43;1.73;;;19.40;64.50;;;;;;4801066;29;20061;-77
2022/05/21 17:48:06;;;;;;;8.90;1.92;;;19.40;64.20;;;;;;4812294;29;20103;-75
2022/05/21 17:50:32;;;;;;;6.50;1.20;;;19.30;64.00;;;;;;4819339;29;20046;-76